createdAt,value
2022-08-01T00:00:36.151Z,99985.53
2022-08-01T00:01:40.563Z,99991.81
2022-08-01T00:03:32.821Z,99980.84
2022-08-01T00:04:30.205Z,99989.56
2022-08-01T00:05:22.161Z,99983.28
2022-08-01T00:06:29.493Z,99983.28
2022-08-01T00:07:27.220Z,99984.09
2022-08-01T00:08:28.352Z,99984.91
2022-08-01T00:09:27.651Z,99984.91
2022-08-01T00:10:19.070Z,99985.72
2022-08-01T00:11:22.928Z,99985.72
2022-08-01T00:12:21.951Z,99981.03
2022-08-01T00:14:08.039Z,99980.72
2022-08-01T00:16:12.255Z,99985.09
2022-08-01T00:17:07.606Z,99978.00
2022-08-01T00:18:02.398Z,99979.63
2022-08-01T00:21:37.251Z,99986.72
2022-08-01T00:23:30.688Z,99980.44
2022-08-01T00:24:20.201Z,99986.72
2022-08-01T00:25:18.056Z,99989.16
2022-08-01T00:26:13.673Z,99988.34
2022-08-01T00:27:05.966Z,99986.72
2022-08-01T00:27:58.358Z,99988.34
2022-08-01T00:30:58.267Z,99982.03
2022-08-01T00:31:54.392Z,99984.78
2022-08-01T00:32:47.493Z,99988.34
2022-08-01T00:33:36.901Z,99977.38
2022-08-01T00:34:26.636Z,99987.22
2022-08-01T00:35:09.222Z,99982.84
2022-08-01T00:35:59.920Z,99984.47
2022-08-01T00:37:50.909Z,99984.47
2022-08-01T00:38:48.096Z,99985.91
2022-08-01T00:42:26.592Z,99976.56
2022-08-01T00:43:21.875Z,99981.06
2022-08-01T00:47:55.022Z,99989.00
2022-08-01T00:48:38.317Z,99985.75
2022-08-01T00:49:23.954Z,99982.50
2022-08-01T00:50:09.357Z,99991.03
2022-08-01T00:50:57.420Z,99985.56
2022-08-01T00:51:53.414Z,99983.13
2022-08-01T00:52:51.375Z,99976.03
2022-08-01T00:53:51.223Z,99977.47
2022-08-01T00:54:38.703Z,99983.78
2022-08-01T00:55:47.543Z,99983.28
2022-08-01T00:56:50.098Z,99978.91
2022-08-01T00:58:04.779Z,99987.44
2022-08-01T00:58:52.339Z,99980.34
2022-08-01T00:59:46.864Z,99986.13
2022-08-01T01:00:52.743Z,99985.00
2022-08-01T01:01:46.476Z,99981.75
2022-08-01T01:02:33.877Z,99976.59
2022-08-01T01:03:49.391Z,99983.19
2022-08-01T01:04:27.772Z,99980.44
2022-08-01T01:05:17.544Z,99981.56
2022-08-01T01:06:10.821Z,99983.47
2022-08-01T01:06:57.216Z,99992.00
2022-08-01T01:07:49.933Z,99991.19
2022-08-01T01:08:33.942Z,99990.38
2022-08-01T01:09:27.318Z,99987.16
2022-08-01T01:10:20.946Z,99989.06
2022-08-01T01:11:09.832Z,99983.91
2022-08-01T01:12:09.459Z,99993.22
2022-08-01T01:12:56.836Z,99986.13
2022-08-01T01:13:50.348Z,99986.13
2022-08-01T01:14:40.369Z,99988.06
2022-08-01T01:15:25.760Z,99985.63
2022-08-01T01:16:14.538Z,99986.44
2022-08-01T01:16:59.387Z,99985.31
2022-08-01T01:17:50.972Z,99988.66
2022-08-01T01:18:32.128Z,99981.25
2022-08-01T01:19:18.504Z,99984.00
2022-08-01T01:20:09.453Z,99977.72
2022-08-01T01:21:03.771Z,99982.38
2022-08-01T01:21:49.399Z,99983.19
2022-08-01T01:22:40.891Z,99983.19
2022-08-01T01:23:28.983Z,99979.94
2022-08-01T01:24:20.573Z,99985.44
2022-08-01T01:25:06.950Z,99979.94
2022-08-01T01:25:58.635Z,99982.69
2022-08-01T01:26:41.996Z,99977.53
2022-08-01T01:27:32.182Z,99978.31
2022-08-01T01:28:17.388Z,99986.84
2022-08-01T01:29:07.432Z,99983.00
2022-08-01T01:29:59.675Z,99980.25
2022-08-01T01:30:47.388Z,99979.44
2022-08-01T01:31:36.186Z,99981.38
2022-08-01T01:32:28.678Z,99980.56
2022-08-01T01:33:16.173Z,99978.94
2022-08-01T01:34:04.090Z,99987.97
2022-08-01T01:34:54.605Z,99981.69
2022-08-01T01:35:40.892Z,99987.16
2022-08-01T01:36:24.107Z,99980.06
2022-08-01T01:37:12.128Z,99983.91
2022-08-01T01:37:58.125Z,99975.19
2022-08-01T01:38:47.253Z,99986.94
2022-08-01T01:39:33.801Z,99983.41
2022-08-01T01:40:22.416Z,99982.59
2022-08-01T01:41:04.032Z,99982.59
2022-08-01T01:41:53.370Z,99982.59
2022-08-01T01:42:48.606Z,99983.41
2022-08-01T01:43:36.631Z,99980.66
2022-08-01T01:44:25.057Z,99982.88
2022-08-01T01:45:21.596Z,99981.78
2022-08-01T01:48:15.626Z,99990.81
2022-08-01T01:49:17.330Z,99981.78
2022-08-01T01:50:17.994Z,99987.25
2022-08-01T01:51:14.302Z,99988.88
2022-08-01T01:52:53.721Z,99990.00
2022-08-01T01:56:00.659Z,99984.53
2022-08-01T01:57:01.571Z,99989.16
2022-08-01T01:57:58.623Z,99990.00
2022-08-01T01:58:49.173Z,99985.59
2022-08-01T01:59:43.504Z,99991.06
2022-08-01T02:00:38.750Z,99990.25
2022-08-01T02:02:05.464Z,99992.19
2022-08-01T02:02:52.629Z,99998.47
2022-08-01T02:04:04.998Z,99988.66
2022-08-01T02:05:05.078Z,99983.97
2022-08-01T02:06:11.982Z,99995.22
2022-08-01T02:07:06.153Z,99994.13
2022-08-01T02:07:59.665Z,99991.38
2022-08-01T02:08:54.977Z,99992.50
2022-08-01T02:10:47.202Z,99991.69
2022-08-01T02:12:58.435Z,99990.06
2022-08-01T02:14:01.879Z,99991.19
2022-08-01T02:14:59.155Z,99990.06
2022-08-01T02:15:59.447Z,99993.91
2022-08-01T02:17:07.159Z,99988.44
2022-08-01T02:17:51.330Z,99985.69
2022-08-01T02:18:36.022Z,99992.00
2022-08-01T02:19:20.621Z,99993.59
2022-08-01T02:20:04.344Z,99990.06
2022-08-01T02:20:47.703Z,99991.69
2022-08-01T02:22:29.989Z,99986.22
2022-08-01T02:23:15.234Z,99986.22
2022-08-01T02:24:03.994Z,99986.22
2022-08-01T02:24:53.715Z,99985.41
2022-08-01T02:26:08.521Z,99989.75
2022-08-01T02:26:48.504Z,99991.69
2022-08-01T02:27:34.383Z,99993.31
2022-08-01T02:28:19.550Z,99993.31
2022-08-01T02:29:13.365Z,99990.56
2022-08-01T02:30:06.368Z,99986.72
2022-08-01T02:30:56.065Z,99983.97
2022-08-01T02:31:47.708Z,99988.66
2022-08-01T02:32:30.485Z,99990.25
2022-08-01T02:33:24.668Z,99986.72
2022-08-01T02:34:11.221Z,99983.16
2022-08-01T02:35:03.913Z,99990.56
2022-08-01T02:36:29.804Z,99993.31
2022-08-01T02:36:53.860Z,99996.84
2022-08-01T02:37:44.427Z,99985.91
2022-08-01T02:38:39.770Z,99988.66
2022-08-01T02:39:29.330Z,99991.38
2022-08-01T02:40:17.186Z,99987.84
2022-08-01T02:41:07.672Z,99990.56
2022-08-01T02:42:00.841Z,99991.69
2022-08-01T02:42:50.458Z,99993.31
2022-08-01T02:43:41.346Z,99992.50
2022-08-01T02:44:35.894Z,99994.41
2022-08-01T02:45:20.986Z,99991.69
2022-08-01T02:46:13.362Z,99992.81
2022-08-01T02:46:57.604Z,99987.31
2022-08-01T02:47:49.169Z,99995.53
2022-08-01T02:48:33.976Z,99995.53
2022-08-01T02:50:11.065Z,99994.72
2022-08-01T02:51:05.037Z,99995.53
2022-08-01T02:51:49.656Z,99994.41
2022-08-01T02:52:43.058Z,99994.41
2022-08-01T02:53:44.156Z,99992.81
2022-08-01T02:54:27.792Z,99995.53
2022-08-01T02:55:28.909Z,99999.91
2022-08-01T02:56:19.313Z,100000.69
2022-08-01T02:57:08.281Z,99995.53
2022-08-01T02:57:58.429Z,99992.81
2022-08-01T02:58:43.846Z,100001.00
2022-08-01T02:59:32.527Z,99998.28
2022-08-01T03:00:18.740Z,100004.56
2022-08-01T03:01:04.436Z,100000.19
2022-08-01T03:01:55.088Z,99995.53
2022-08-01T03:02:45.016Z,99999.38
2022-08-01T03:03:31.121Z,99996.66
2022-08-01T03:04:21.015Z,99998.28
2022-08-01T03:05:10.057Z,99996.66
2022-08-01T03:06:03.496Z,99999.38
2022-08-01T03:06:47.786Z,100000.19
2022-08-01T03:07:40.664Z,99999.38
2022-08-01T03:08:28.886Z,99997.47
2022-08-01T03:09:19.779Z,100004.88
2022-08-01T03:10:09.346Z,99999.38
2022-08-01T03:10:59.644Z,99997.47
2022-08-01T03:11:52.533Z,100010.84
2022-08-01T03:12:37.637Z,100003.75
2022-08-01T03:13:29.769Z,100004.88
2022-08-01T03:14:15.710Z,99999.38
2022-08-01T03:15:07.648Z,100000.50
2022-08-01T03:15:55.141Z,100000.19
2022-08-01T03:16:41.734Z,99997.47
2022-08-01T03:17:24.404Z,100002.13
2022-08-01T03:18:17.736Z,99995.84
2022-08-01T03:19:03.882Z,99998.56
2022-08-01T03:19:50.690Z,99999.38
2022-08-01T03:20:36.824Z,99986.81
2022-08-01T03:21:26.640Z,99992.28
2022-08-01T03:22:11.735Z,99987.63
2022-08-01T03:24:01.912Z,99987.63
2022-08-01T03:24:58.403Z,99992.28
2022-08-01T03:25:52.505Z,99983.28
2022-08-01T03:28:55.786Z,99992.28
2022-08-01T03:29:53.681Z,99992.28
2022-08-01T03:31:50.600Z,99995.34
2022-08-01T03:32:42.955Z,99992.59
2022-08-01T03:33:25.332Z,99992.59
2022-08-01T03:34:11.476Z,99994.53
2022-08-01T03:34:56.577Z,99998.88
2022-08-01T03:35:40.509Z,100003.53
2022-08-01T03:36:24.255Z,100002.72
2022-08-01T03:37:09.298Z,99997.25
2022-08-01T03:38:14.658Z,100007.09
2022-08-01T03:38:50.672Z,100001.63
2022-08-01T03:39:35.654Z,100001.91
2022-08-01T03:40:23.400Z,100008.19
2022-08-01T03:41:06.359Z,100005.47
2022-08-01T03:41:52.567Z,100006.28
2022-08-01T03:42:40.015Z,100001.09
2022-08-01T03:43:21.071Z,100006.59
2022-08-01T03:44:05.264Z,100012.06
2022-08-01T03:44:50.355Z,100004.66
2022-08-01T03:45:33.666Z,100008.19
2022-08-01T03:46:17.799Z,100007.41
2022-08-01T03:47:03.206Z,100005.78
2022-08-01T03:47:45.875Z,100003.84
2022-08-01T03:48:26.886Z,100003.03
2022-08-01T03:49:12.000Z,100002.22
2022-08-01T03:49:55.560Z,100003.84
2022-08-01T03:50:41.393Z,100001.09
2022-08-01T03:51:24.946Z,100002.22
2022-08-01T03:52:09.360Z,100009.31
2022-08-01T03:52:54.357Z,100012.88
2022-08-01T03:53:36.055Z,100013.97
2022-08-01T03:54:23.587Z,100009.31
2022-08-01T03:55:09.082Z,100007.69
2022-08-01T03:55:52.049Z,100003.84
2022-08-01T03:56:36.791Z,100015.59
2022-08-01T03:57:36.424Z,100012.88
2022-08-01T03:58:16.634Z,100013.69
2022-08-01T03:59:03.474Z,100010.13
2022-08-01T03:59:49.634Z,100011.75
2022-08-01T04:00:35.314Z,100010.94
2022-08-01T04:01:22.818Z,100007.09
2022-08-01T04:02:09.945Z,100007.91
2022-08-01T04:02:56.174Z,100007.09
2022-08-01T04:03:41.475Z,100010.63
2022-08-01T04:04:25.124Z,100009.81
2022-08-01T04:05:10.367Z,100008.19
2022-08-01T04:05:54.916Z,100004.66
2022-08-01T04:06:37.979Z,100009.31
2022-08-01T04:07:22.742Z,100009.63
2022-08-01T04:08:09.374Z,100009.63
2022-08-01T04:08:50.776Z,100008.81
2022-08-01T04:09:35.564Z,100006.88
2022-08-01T04:10:20.564Z,100006.06
2022-08-01T04:11:06.434Z,100010.72
2022-08-01T04:11:51.052Z,100009.94
2022-08-01T04:12:36.628Z,100009.94
2022-08-01T04:13:23.294Z,100016.22
2022-08-01T04:14:13.772Z,100008.00
2022-08-01T04:14:58.444Z,100014.59
2022-08-01T04:15:43.864Z,100011.53
2022-08-01T04:16:31.283Z,100016.22
2022-08-01T04:17:14.859Z,100015.41
2022-08-01T04:17:59.489Z,100018.13
2022-08-01T04:18:43.331Z,100020.88
2022-08-01T04:19:25.228Z,100014.59
2022-08-01T04:20:07.985Z,100017.31
2022-08-01T04:20:53.691Z,100018.13
2022-08-01T04:21:36.986Z,100023.59
2022-08-01T04:22:21.950Z,100019.25
2022-08-01T04:23:05.271Z,100015.69
2022-08-01T04:23:52.597Z,100017.63
2022-08-01T04:24:33.468Z,100014.88
2022-08-01T04:25:17.247Z,100026.66
2022-08-01T04:26:03.434Z,100020.38
2022-08-01T04:26:48.043Z,100025.84
2022-08-01T04:27:50.021Z,100026.94
2022-08-01T04:28:33.960Z,100022.59
2022-08-01T04:29:17.713Z,100028.88
2022-08-01T04:29:59.828Z,100026.13
2022-08-01T04:30:44.971Z,100032.72
2022-08-01T04:31:29.934Z,100026.44
2022-08-01T04:32:15.242Z,100030.81
2022-08-01T04:33:00.445Z,100034.34
2022-08-01T04:33:43.748Z,100034.66
2022-08-01T04:34:30.559Z,100035.47
2022-08-01T04:35:22.839Z,100030.28
2022-08-01T04:36:14.966Z,100029.19
2022-08-01T04:36:59.495Z,100032.72
2022-08-01T04:37:44.823Z,100033.84
2022-08-01T04:38:29.485Z,100033.84
2022-08-01T04:39:10.640Z,100033.03
2022-08-01T04:39:57.344Z,100036.88
2022-08-01T04:40:41.743Z,100034.13
2022-08-01T04:41:25.372Z,100037.69
2022-08-01T04:42:10.292Z,100038.81
2022-08-01T04:42:55.754Z,100035.25
2022-08-01T04:43:44.673Z,100033.31
2022-08-01T04:44:31.001Z,100036.06
2022-08-01T04:45:14.779Z,100036.06
2022-08-01T04:46:00.379Z,100036.06
2022-08-01T04:46:47.799Z,100031.41
2022-08-01T04:47:33.583Z,100036.88
2022-08-01T04:48:19.226Z,100036.06
2022-08-01T04:49:07.107Z,100038.00
2022-08-01T04:49:57.702Z,100029.78
2022-08-01T04:50:42.987Z,100037.19
2022-08-01T04:51:28.762Z,100038.28
2022-08-01T04:52:18.139Z,100040.22
2022-08-01T04:53:03.872Z,100041.03
2022-08-01T04:53:49.811Z,100043.75
2022-08-01T04:54:32.543Z,100050.03
2022-08-01T04:55:16.437Z,100046.50
2022-08-01T04:56:01.778Z,100044.56
2022-08-01T04:56:47.402Z,100049.25
2022-08-01T04:57:35.088Z,100042.94
2022-08-01T04:58:20.720Z,100049.25
2022-08-01T04:59:08.404Z,100047.31
2022-08-01T04:59:50.773Z,100045.69
2022-08-01T05:00:36.212Z,100041.03
2022-08-01T05:01:21.999Z,100044.56
2022-08-01T05:02:08.972Z,100044.56
2022-08-01T05:02:55.525Z,100038.28
2022-08-01T05:03:41.840Z,100048.94
2022-08-01T05:04:29.372Z,100050.03
2022-08-01T05:05:20.419Z,100042.66
2022-08-01T05:06:04.671Z,100043.75
2022-08-01T05:06:50.338Z,100050.03
2022-08-01T05:07:45.176Z,100049.25
2022-08-01T05:08:29.518Z,100047.31
2022-08-01T05:09:15.989Z,100045.38
2022-08-01T05:09:58.711Z,100041.84
2022-08-01T05:11:12.938Z,100045.69
2022-08-01T05:12:00.641Z,100051.16
2022-08-01T05:12:48.305Z,100053.09
2022-08-01T05:13:35.928Z,100048.72
2022-08-01T05:14:21.448Z,100044.88
2022-08-01T05:15:15.453Z,100053.38
2022-08-01T05:15:58.469Z,100049.84
2022-08-01T05:17:02.398Z,100049.03
2022-08-01T05:17:47.391Z,100049.84
2022-08-01T05:18:29.971Z,100050.66
2022-08-01T05:19:14.967Z,100051.75
2022-08-01T05:20:00.353Z,100048.22
2022-08-01T05:20:42.350Z,100051.75
2022-08-01T05:21:26.280Z,100049.84
2022-08-01T05:22:14.284Z,100052.88
2022-08-01T05:23:02.957Z,100059.16
2022-08-01T05:23:51.001Z,100053.69
2022-08-01T05:24:40.117Z,100052.88
2022-08-01T05:25:57.614Z,100055.59
2022-08-01T05:26:43.309Z,100056.72
2022-08-01T05:27:32.120Z,100058.34
2022-08-01T05:28:28.117Z,100055.91
2022-08-01T05:29:16.316Z,100060.28
2022-08-01T05:30:01.633Z,100052.06
2022-08-01T05:30:47.150Z,100059.47
2022-08-01T05:31:34.682Z,100066.56
2022-08-01T05:32:33.179Z,100061.09
2022-08-01T05:33:26.298Z,100062.19
2022-08-01T05:34:14.833Z,100069.28
2022-08-01T05:35:01.665Z,100070.09
2022-08-01T05:35:48.150Z,100069.28
2022-08-01T05:36:30.473Z,100063.81
2022-08-01T05:37:21.068Z,100069.28
2022-08-01T05:38:41.119Z,100069.28
2022-08-01T05:39:26.366Z,100062.19
2022-08-01T05:40:15.332Z,100069.28
2022-08-01T05:41:02.561Z,100067.66
2022-08-01T05:41:47.117Z,100067.66
2022-08-01T05:42:33.094Z,100071.22
2022-08-01T05:43:28.200Z,100070.41
2022-08-01T05:44:18.572Z,100068.78
2022-08-01T05:45:12.593Z,100075.88
2022-08-01T05:45:58.973Z,100070.69
2022-08-01T05:46:44.364Z,100073.13
2022-08-01T05:47:27.372Z,100077.81
2022-08-01T05:48:23.255Z,100073.44
2022-08-01T05:49:08.440Z,100070.69
2022-08-01T05:49:55.641Z,100072.63
2022-08-01T05:50:45.907Z,100075.38
2022-08-01T05:51:47.408Z,100076.19
2022-08-01T05:52:32.662Z,100076.19
2022-08-01T05:53:17.766Z,100081.66
2022-08-01T05:54:02.096Z,100079.72
2022-08-01T05:54:49.336Z,100076.19
2022-08-01T05:55:33.743Z,100074.56
2022-08-01T05:56:20.694Z,100079.22
2022-08-01T05:57:08.921Z,100083.56
2022-08-01T05:57:51.184Z,100084.69
2022-08-01T05:58:37.583Z,100086.31
2022-08-01T05:59:23.035Z,100081.13
2022-08-01T06:00:08.196Z,100081.94
2022-08-01T06:00:54.663Z,100080.31
2022-08-01T06:01:41.364Z,100075.66
2022-08-01T06:02:28.903Z,100089.34
2022-08-01T06:03:10.959Z,100084.69
2022-08-01T06:03:57.980Z,100083.88
2022-08-01T06:04:42.690Z,100084.69
2022-08-01T06:06:45.170Z,100089.84
2022-08-01T06:07:47.025Z,100085.50
2022-08-01T06:08:34.055Z,100088.22
2022-08-01T06:09:19.533Z,100085.50
2022-08-01T06:10:05.899Z,100083.56
2022-08-01T06:10:54.639Z,100082.75
2022-08-01T06:11:47.155Z,100080.84
2022-08-01T06:12:47.537Z,100089.34
2022-08-01T06:13:48.886Z,100088.22
2022-08-01T06:14:32.320Z,100085.50
2022-08-01T06:15:19.176Z,100094.50
2022-08-01T06:16:07.388Z,100090.16
2022-08-01T06:16:57.936Z,100086.31
2022-08-01T06:17:45.145Z,100087.41
2022-08-01T06:18:38.611Z,100089.34
2022-08-01T06:19:47.907Z,100093.69
2022-08-01T06:20:33.506Z,100094.50
2022-08-01T06:21:19.924Z,100095.63
2022-08-01T06:22:05.246Z,100084.69
2022-08-01T06:23:45.748Z,100089.34
2022-08-01T06:24:35.805Z,100095.63
2022-08-01T06:25:21.173Z,100098.38
2022-08-01T06:26:01.975Z,100095.63
2022-08-01T06:26:47.972Z,100099.97
2022-08-01T06:27:33.462Z,100096.44
2022-08-01T06:28:16.815Z,100092.88
2022-08-01T06:29:02.113Z,100098.38
2022-08-01T06:30:01.455Z,100094.81
2022-08-01T06:30:47.790Z,100094.00
2022-08-01T06:31:33.501Z,100088.53
2022-08-01T06:32:25.423Z,100099.47
2022-08-01T06:33:12.018Z,100096.75
2022-08-01T06:34:02.481Z,100094.31
2022-08-01T06:35:47.900Z,100091.56
2022-08-01T06:36:30.534Z,100092.38
2022-08-01T06:37:18.566Z,100092.38
2022-08-01T06:38:04.358Z,100086.91
2022-08-01T06:38:50.527Z,100086.91
2022-08-01T06:39:37.756Z,100084.16
2022-08-01T06:40:23.585Z,100085.78
2022-08-01T06:42:28.674Z,100086.91
2022-08-01T06:43:19.020Z,100093.19
2022-08-01T06:44:04.894Z,100085.78
2022-08-01T06:44:53.486Z,100090.47
2022-08-01T06:45:40.420Z,100092.38
2022-08-01T06:46:23.106Z,100088.84
2022-08-01T06:47:10.831Z,100092.69
2022-08-01T06:48:04.601Z,100090.75
2022-08-01T06:48:51.037Z,100088.03
2022-08-01T06:49:44.553Z,100090.75
2022-08-01T06:50:32.244Z,100096.22
2022-08-01T06:51:19.823Z,100091.56
2022-08-01T06:52:03.436Z,100090.75
2022-08-01T06:52:49.439Z,100093.50
2022-08-01T06:53:38.010Z,100092.69
2022-08-01T06:54:33.592Z,100092.69
2022-08-01T06:55:20.648Z,100093.50
2022-08-01T06:56:06.494Z,100090.75
2022-08-01T06:56:51.140Z,100089.94
2022-08-01T06:57:39.551Z,100090.75
2022-08-01T06:58:30.915Z,100089.13
2022-08-01T06:59:15.878Z,100089.13
2022-08-01T07:01:13.114Z,100084.78
2022-08-01T07:02:00.330Z,100086.69
2022-08-01T07:02:44.980Z,100090.53
2022-08-01T07:03:53.904Z,100094.91
2022-08-01T07:04:30.676Z,100087.50
2022-08-01T07:05:14.892Z,100083.97
2022-08-01T07:05:59.649Z,100090.25
2022-08-01T07:06:42.506Z,100092.97
2022-08-01T07:07:27.424Z,100085.88
2022-08-01T07:08:14.482Z,100089.44
2022-08-01T07:09:08.457Z,100093.78
2022-08-01T07:09:54.498Z,100093.78
2022-08-01T07:10:43.427Z,100092.97
2022-08-01T07:11:36.271Z,100092.97
2022-08-01T07:12:52.500Z,100093.28
2022-08-01T07:13:53.347Z,100089.72
2022-08-01T07:14:41.328Z,100093.56
2022-08-01T07:15:28.445Z,100088.09
2022-08-01T07:16:15.851Z,100092.47
2022-08-01T07:17:01.460Z,100087.81
2022-08-01T07:17:47.258Z,100086.19
2022-08-01T07:18:41.420Z,100088.09
2022-08-01T07:19:26.458Z,100091.66
2022-08-01T07:20:16.595Z,100082.63
2022-08-01T07:21:45.250Z,100084.78
2022-08-01T07:22:42.572Z,100085.88
2022-08-01T07:23:30.473Z,100085.88
2022-08-01T07:24:21.162Z,100088.63
2022-08-01T07:25:07.589Z,100087.00
2022-08-01T07:26:18.115Z,100085.06
2022-08-01T07:27:21.275Z,100085.88
2022-08-01T07:28:07.226Z,100088.09
2022-08-01T07:29:56.179Z,100087.81
2022-08-01T07:31:03.994Z,100089.72
2022-08-01T07:32:28.555Z,100093.28
2022-08-01T07:33:17.727Z,100093.28
2022-08-01T07:34:09.915Z,100095.19
2022-08-01T07:34:59.169Z,100089.72
2022-08-01T07:35:46.405Z,100089.72
2022-08-01T07:36:34.016Z,100084.25
2022-08-01T07:37:17.960Z,100089.72
2022-08-01T07:38:20.767Z,100093.28
2022-08-01T07:39:07.730Z,100093.56
2022-08-01T07:39:54.744Z,100087.28
2022-08-01T07:40:44.062Z,100087.28
2022-08-01T07:41:53.849Z,100086.47
2022-08-01T07:42:38.165Z,100092.75
2022-08-01T07:43:25.719Z,100086.47
2022-08-01T07:44:19.136Z,100088.41
2022-08-01T07:45:46.406Z,100091.94
2022-08-01T07:46:32.172Z,100093.88
2022-08-01T07:47:19.345Z,100091.13
2022-08-01T07:48:01.991Z,100091.94
2022-08-01T07:48:47.808Z,100093.88
2022-08-01T07:49:39.165Z,100095.81
2022-08-01T07:50:26.096Z,100098.53
2022-08-01T07:51:42.111Z,100088.72
2022-08-01T07:52:43.339Z,100098.53
2022-08-01T07:53:32.540Z,100095.00
2022-08-01T07:54:49.245Z,100096.91
2022-08-01T07:55:36.815Z,100100.47
2022-08-01T07:56:25.100Z,100094.19
2022-08-01T07:57:11.997Z,100088.72
2022-08-01T07:58:00.345Z,100095.81
2022-08-01T07:58:52.552Z,100093.06
2022-08-01T07:59:43.045Z,100090.31
2022-08-01T08:00:30.694Z,100096.63
2022-08-01T08:01:16.659Z,100101.28
2022-08-01T08:02:02.841Z,100102.09
2022-08-01T08:02:49.641Z,100104.00
2022-08-01T08:03:35.757Z,100099.66
2022-08-01T08:04:24.417Z,100103.19
2022-08-01T08:05:10.800Z,100108.66
2022-08-01T08:06:01.260Z,100116.88
2022-08-01T08:06:47.835Z,100103.19
2022-08-01T08:07:55.224Z,100102.91
2022-08-01T08:08:48.712Z,100101.28
2022-08-01T08:09:37.337Z,100095.81
2022-08-01T08:10:24.838Z,100103.72
2022-08-01T08:11:13.621Z,100102.09
2022-08-01T08:12:09.021Z,100108.38
2022-08-01T08:12:55.848Z,100108.38
2022-08-01T08:14:17.036Z,100112.22
2022-08-01T08:15:04.394Z,100110.28
2022-08-01T08:17:08.033Z,100107.56
2022-08-01T08:17:58.922Z,100113.03
2022-08-01T08:18:43.069Z,100113.84
2022-08-01T08:19:37.259Z,100113.84
2022-08-01T08:20:21.298Z,100119.31
2022-08-01T08:21:07.108Z,100116.56
2022-08-01T08:21:51.808Z,100117.69
2022-08-01T08:22:37.855Z,100116.56
2022-08-01T08:23:41.201Z,100120.13
2022-08-01T08:24:27.331Z,100111.09
2022-08-01T08:25:08.625Z,100119.31
2022-08-01T08:25:55.204Z,100118.50
2022-08-01T08:27:48.625Z,100110.00
2022-08-01T08:28:37.775Z,100115.47
2022-08-01T08:29:23.611Z,100118.19
2022-08-01T08:30:18.442Z,100121.75
2022-08-01T08:31:59.915Z,100117.91
2022-08-01T08:32:43.815Z,100124.19
2022-08-01T08:33:42.736Z,100111.63
2022-08-01T08:34:27.599Z,100115.97
2022-08-01T08:35:11.970Z,100118.72
2022-08-01T08:35:58.312Z,100119.81
2022-08-01T08:36:47.698Z,100106.97
2022-08-01T08:37:38.000Z,100112.44
2022-08-01T08:38:28.416Z,100113.25
2022-08-01T08:39:13.184Z,100114.06
2022-08-01T08:40:02.007Z,100112.44
2022-08-01T08:40:47.928Z,100120.63
2022-08-01T08:41:36.957Z,100121.44
2022-08-01T08:42:22.629Z,100114.34
2022-08-01T08:43:09.607Z,100113.25
2022-08-01T08:45:03.083Z,100120.63
2022-08-01T08:46:00.079Z,100121.75
2022-08-01T08:46:45.278Z,100124.47
2022-08-01T08:47:32.342Z,100124.47
2022-08-01T08:48:19.629Z,100117.09
2022-08-01T08:49:13.225Z,100126.09
2022-08-01T08:50:00.040Z,100128.84
2022-08-01T08:50:46.085Z,100130.47
2022-08-01T08:51:32.880Z,100124.19
2022-08-01T08:52:20.035Z,100131.56
2022-08-01T08:53:07.009Z,100129.66
2022-08-01T08:53:54.951Z,100126.91
2022-08-01T08:54:41.163Z,100130.75
2022-08-01T08:55:27.802Z,100137.03
2022-08-01T08:56:21.997Z,100130.75
2022-08-01T08:57:09.795Z,100128.03
2022-08-01T08:57:57.498Z,100131.56
2022-08-01T08:58:44.424Z,100132.38
2022-08-01T08:59:31.058Z,100130.47
2022-08-01T09:00:20.313Z,100130.97
2022-08-01T09:01:06.697Z,100132.09
2022-08-01T09:01:58.738Z,100136.75
2022-08-01T09:02:44.999Z,100143.03
2022-08-01T09:03:35.010Z,100134.00
2022-08-01T09:05:19.081Z,100135.94
2022-08-01T09:06:03.054Z,100136.44
2022-08-01T09:06:48.411Z,100136.75
2022-08-01T09:07:36.670Z,100131.28
2022-08-01T09:08:25.790Z,100135.94
2022-08-01T09:09:13.805Z,100141.41
2022-08-01T09:10:01.845Z,100137.03
2022-08-01T09:10:47.491Z,100142.53
2022-08-01T09:11:42.685Z,100141.41
2022-08-01T09:12:47.220Z,100142.22
2022-08-01T09:13:38.471Z,100135.13
2022-08-01T09:14:29.548Z,100132.38
2022-08-01T09:15:18.987Z,100134.00
2022-08-01T09:16:07.065Z,100138.38
2022-08-01T09:16:57.066Z,100132.91
2022-08-01T09:17:40.242Z,100134.81
2022-08-01T09:18:25.213Z,100137.25
2022-08-01T09:19:16.501Z,100145.47
2022-08-01T09:20:11.634Z,100141.91
2022-08-01T09:20:57.392Z,100141.91
2022-08-01T09:21:42.732Z,100136.44
2022-08-01T09:22:25.553Z,100143.84
2022-08-01T09:23:11.302Z,100143.84
2022-08-01T09:23:58.987Z,100143.84
2022-08-01T09:24:45.893Z,100150.13
2022-08-01T09:25:46.009Z,100147.41
2022-08-01T09:26:31.180Z,100146.59
2022-08-01T09:27:22.404Z,100143.03
2022-08-01T09:28:03.771Z,100142.22
2022-08-01T09:28:51.740Z,100153.97
2022-08-01T09:29:41.533Z,100151.25
2022-08-01T09:30:44.753Z,100148.50
2022-08-01T09:31:38.394Z,100147.69
2022-08-01T09:32:25.986Z,100152.06
2022-08-01T09:33:17.723Z,100155.91
2022-08-01T09:34:04.002Z,100158.63
2022-08-01T09:34:48.638Z,100153.16
2022-08-01T09:35:36.512Z,100157.81
2022-08-01T09:36:27.861Z,100158.63
2022-08-01T09:37:14.916Z,100155.91
2022-08-01T09:38:01.505Z,100161.38
2022-08-01T09:38:50.875Z,100161.38
2022-08-01T09:39:39.876Z,100155.09
2022-08-01T09:40:49.274Z,100152.34
2022-08-01T09:41:39.887Z,100157.00
2022-08-01T09:42:29.049Z,100155.09
2022-08-01T09:43:15.013Z,100154.28
2022-08-01T09:44:03.268Z,100158.63
2022-08-01T09:44:55.117Z,100155.09
2022-08-01T09:45:41.838Z,100152.34
2022-08-01T09:46:28.580Z,100155.09
2022-08-01T09:47:15.622Z,100159.75
2022-08-01T09:48:58.051Z,100155.09
2022-08-01T09:49:50.652Z,100157.00
2022-08-01T09:50:39.421Z,100157.81
2022-08-01T09:51:57.900Z,100156.72
2022-08-01T09:52:28.968Z,100154.78
2022-08-01T09:53:24.472Z,100155.09
2022-08-01T09:54:16.664Z,100159.44
2022-08-01T09:55:02.079Z,100156.72
2022-08-01T09:56:04.840Z,100153.16
2022-08-01T09:56:52.486Z,100154.78
2022-08-01T09:57:37.249Z,100157.53
2022-08-01T09:58:25.780Z,100147.41
2022-08-01T09:59:10.913Z,100153.69
2022-08-01T09:59:58.639Z,100152.88
2022-08-01T10:00:45.619Z,100153.69
2022-08-01T10:01:36.716Z,100152.88
2022-08-01T10:02:34.916Z,100149.03
2022-08-01T10:03:20.876Z,100148.22
2022-08-01T10:04:06.303Z,100152.06
2022-08-01T10:04:50.845Z,100150.94
2022-08-01T10:05:38.290Z,100152.56
2022-08-01T10:06:31.721Z,100156.41
2022-08-01T10:07:42.542Z,100151.75
2022-08-01T10:08:24.183Z,100156.41
2022-08-01T10:09:16.668Z,100152.56
2022-08-01T10:10:12.331Z,100148.22
2022-08-01T10:11:00.206Z,100157.22
2022-08-01T10:11:47.001Z,100150.94
2022-08-01T10:12:47.720Z,100160.78
2022-08-01T10:13:36.348Z,100162.69
2022-08-01T10:14:21.408Z,100159.16